Flight Track Log - Related Links

Times and Time Zones

All times are in EST time to prevent confusion due to time zone crossing. See the N465TP flight status page for this flight to view local times or setup timezone preferences in your user account.


Time Position Orientation Groundspeed Altitude Reporting Facility
EST Latitude Longitude Course Direction KTS MPH feet Rate Location/Type
Sat 06:01:57 PM 44.6333 -109.0211 287° West 152 175 10,100  Level Salt Lake Center
Sat 06:02:58 PM 44.6472 -109.0703 292° West 142 163 11,700 1,415 Climbing Salt Lake Center
Sat 06:04:00 PM 44.6600 -109.1206 290° West 138 159 13,000 1,268 Climbing Salt Lake Center
Sat 06:05:01 PM 44.6733 -109.1731 290° West 140 161 14,300 1,279 Climbing Salt Lake Center
Sat 06:06:02 PM 44.6875 -109.2283 290° West 147 169 15,600 1,317 Climbing Salt Lake Center
Sat 06:07:00 PM 44.6669 -109.1678 287° West  Level FlightAware Approximate
Sat 06:07:04 PM 44.7022 -109.2850 290° West 152 175 17,000  Level Salt Lake Center
Sat 06:08:05 PM 44.7156 -109.3397 289° West 150 173 18,400 1,230 Climbing Salt Lake Center
Sat 06:09:06 PM 44.7297 -109.3942 290° West 149 171 19,500 780 Climbing Salt Lake Center
Sat 06:10:08 PM 44.7458 -109.4550 290° West 160 184 20,000 244 Climbing Salt Lake Center
Sat 06:11:09 PM 44.7636 -109.5303 288° West 193 222 20,000 -49 Level Salt Lake Center
Sat 06:12:10 PM 44.7881 -109.6239 290° West 210 242 19,900  Descending Salt Lake Center
Sat 06:13:11 PM 44.8083 -109.7039 290° West 215 247 20,000 49 Climbing Salt Lake Center
Sat 06:14:13 PM 44.8286 -109.7811 290° West 212 244 20,000  Level Salt Lake Center
Sat 06:15:14 PM 44.8467 -109.8544 289° West 213 245 20,000  Level Salt Lake Center
Sat 06:16:15 PM 44.8678 -109.9431 289° West 213 245 20,000  Level Salt Lake Center
Sat 06:17:17 PM 44.8864 -110.0186 289° West 215 247 20,000  Level Salt Lake Center
Sat 06:18:18 PM 44.9075 -110.1075 289° West 214 246 20,000  Level Salt Lake Center
Sat 06:19:19 PM 44.9267 -110.1836 290° West 214 246 20,000  Level Salt Lake Center
Sat 06:20:21 PM 44.9458 -110.2614 289° West 218 251 20,000  Level Salt Lake Center
Sat 06:21:22 PM 44.9686 -110.3497 290° West 215 247 20,000  Level Salt Lake Center
Sat 06:22:23 PM 44.9864 -110.4267 288° West 216 249 20,000  Level Salt Lake Center
Sat 06:23:25 PM 45.0078 -110.5142 289° West 212 244 20,000  Level Salt Lake Center
Sat 06:24:26 PM 45.0261 -110.5900 289° West 213 245 20,000  Level Salt Lake Center
Sat 06:25:27 PM 45.0444 -110.6669 289° West 216 249 20,000  Level Salt Lake Center
Sat 06:26:29 PM 45.0661 -110.7561 289° West 216 249 20,000  Level Salt Lake Center
Sat 06:27:30 PM 45.0839 -110.8347 288° West 218 251 20,000  Level Salt Lake Center
Sat 06:28:31 PM 45.1056 -110.9242 289° West 216 249 20,000  Level Salt Lake Center
Sat 06:29:33 PM 45.1242 -111.0014 289° West 211 243 20,000  Level Salt Lake Center
Sat 06:30:34 PM 45.1428 -111.0842 288° West 216 249 20,000  Level Salt Lake Center
Sat 06:31:35 PM 45.1628 -111.1667 289° West 217 250 20,000 -244 Level Salt Lake Center
Sat 06:32:37 PM 45.1822 -111.2489 289° West 217 250 19,500 -1,024 Descending Salt Lake Center
Sat 06:33:38 PM 45.2000 -111.3267 288° West 206 237 17,900 -1,574 Descending Salt Lake Center

Login

Don't have an account? Register now (free) for customized features, flight alerts, and more!